Latest Weather Observations for Warrnambool

IDV60801

Issued at 9:02 pm EDT Sunday 7 February 2016 (issued every 30 minutes, with the page automatically refreshed every 10 minutes)

About weather observations | Map of weather stations | Latest weather observations for VIC | Other Formats
Station Details ID: 090186 Name: WARRNAMBOOL AIRPORT NDB Lat: -38.29 Lon: 142.45 Height: 70.8 m
Data from the previous 72 hours. | See also: Recent months at Warrnambool
Date/Time
EDT
Temp
°C
App
Temp
°C
Dew
Point
Rel
Hum
%
Delta-T
°C
Wind Press
QNH
hPa
Press
MSL
hPa
Rain
since 9 am
mm
Dir
 
Spd
km/h
Gust
km/h
Spd
kts
Gust
kts
07/09:00pm 17.2 14.7 16.1 93 0.7 SSW 24 30 13 16 1019.9 1019.7 0.2
07/08:30pm 17.9 15.4 16.1 89 1.1 SSW 24 32 13 17 1019.8 1019.6 0.2
07/08:18pm 18.2 14.8 15.8 86 1.4 SSW 28 33 15 18 1019.6 1019.4 0.2
07/08:00pm 18.7 15.7 15.9 84 1.7 SSW 26 32 14 17 1019.3 1019.1 0.2
07/07:53pm 19.0 16.1 16.0 83 1.8 S 26 33 14 18 1019.2 1019.0 0.2
07/07:30pm 19.1 15.9 15.2 78 2.3 S 26 33 14 18 1019.0 1018.8 0.2
07/07:00pm 19.9 16.8 15.5 76 2.6 S 26 30 14 16 1018.7 1018.5 0.2
07/06:30pm 20.8 18.3 16.2 75 2.8 S 24 30 13 16 1018.5 1018.3 0.2
07/06:00pm 20.7 17.4 16.1 75 2.8 SSW 28 35 15 19 1018.7 1018.5 0.2
07/05:30pm 20.7 17.7 15.9 74 2.9 SSW 26 33 14 18 1018.5 1018.3 0.2
07/05:00pm 22.1 19.2 16.1 69 3.6 SSW 26 33 14 18 1018.5 1018.3 0.2
07/04:30pm 21.8 18.8 15.9 69 3.6 SSW 26 32 14 17 1018.4 1018.2 0.2
07/04:00pm 22.2 19.7 16.2 69 3.6 SSW 24 37 13 20 1018.4 1018.2 0.2
07/03:30pm 22.0 19.5 16.1 69 3.6 SSW 24 32 13 17 1018.5 1018.3 0.2
07/03:00pm 22.7 20.3 16.5 68 3.8 S 24 32 13 17 1018.5 1018.3 0.2
07/02:30pm 22.7 21.2 16.7 69 3.7 SSW 20 32 11 17 1018.4 1018.2 0.2
07/02:00pm 22.8 20.8 16.4 67 3.9 SW 22 33 12 18 1018.5 1018.3 0.2
07/01:30pm 22.4 20.4 16.4 69 3.7 SSW 22 33 12 18 1018.5 1018.3 0.2
07/01:00pm 22.8 21.8 16.6 68 3.8 SSW 17 26 9 14 1018.3 1018.1 0.2
07/12:30pm 22.1 21.1 16.6 71 3.4 SSW 17 26 9 14 1018.5 1018.3 0.2
07/12:00pm 22.5 21.0 16.8 70 3.5 SSW 20 33 11 18 1018.6 1018.4 0.2
07/11:30am 21.3 20.3 16.5 74 2.9 SSW 17 24 9 13 1018.4 1018.2 0.0
07/11:00am 21.3 20.0 16.9 76 2.7 SSW 19 22 10 12 1018.5 1018.3 0.0
07/10:30am 20.6 18.5 16.2 76 2.7 SW 22 28 12 15 1018.6 1018.4 0.0
07/10:00am 20.7 20.1 16.7 78 2.4 SSW 15 19 8 10 1018.2 1018.0 0.0
07/09:44am 20.2 20.2 17.2 83 1.8 SSW 13 19 7 10 1018.1 1017.9 0.0
07/09:30am 19.0 18.5 16.8 87 1.3 SSW 15 20 8 11 1018.2 1018.0 0.0
07/09:00am 18.1 17.5 16.6 91 0.9 SSE 15 20 8 11 1017.9 1017.7 0.0
07/08:36am 17.7 18.6 17.5 99 0.1 SSW 9 15 5 8 1017.8 1017.6 0.0
07/08:30am 17.7 19.1 17.7 100 0.0 SSW 7 11 4 6 1017.7 1017.5 0.0
07/08:21am 17.4 18.6 17.4 100 0.0 SSW 7 9 4 5 1017.6 1017.4 0.0
07/08:00am 17.5 18.4 17.5 100 0.0 SSW 9 13 5 7 1017.4 1017.2 0.0
07/07:30am 17.2 18.0 17.2 100 0.0 S 9 13 5 7 1017.2 1017.0 0.0
07/07:22am 17.1 17.4 17.1 100 0.0 S 11 15 6 8 1017.2 1017.0 0.0
07/07:00am 16.8 17.4 16.8 100 0.0 S 9 11 5 6 1017.0 1016.8 0.0
07/06:30am 16.6 17.1 16.6 100 0.0 SSW 9 13 5 7 1016.7 1016.5 0.0
07/06:00am 16.1 16.8 16.1 100 0.0 SW 7 11 4 6 1016.3 1016.1 0.0
07/05:30am 15.7 16.3 15.7 100 0.0 N 7 9 4 5 1016.0 1015.8 0.0
07/05:23am 15.5 16.0 15.5 100 0.0 NNE 7 9 4 5 1015.9 1015.7 0.0
07/05:00am 15.2 16.5 15.2 100 0.0 NNE 2 7 1 4 1015.3 1015.1 0.0
07/04:30am 15.2 16.5 15.2 100 0.0 ENE 2 6 1 3 1015.2 1015.0 0.0
07/04:00am 14.7 15.5 14.7 100 0.0 ENE 4 7 2 4 1015.3 1015.1 0.0
07/03:30am 13.9 14.0 13.9 100 0.0 NW 6 7 3 4 1015.2 1015.0 0.0
07/03:00am 14.3 14.3 14.3 100 0.0 W 7 11 4 6 1015.5 1015.3 0.0
07/02:30am 15.0 15.5 15.0 100 0.0 W 6 7 3 4 1015.6 1015.4 0.0
07/02:13am 14.9 14.4 14.9 100 0.0 WSW 11 15 6 8 1015.9 1015.7 0.0
07/02:00am 14.1 13.3 14.1 100 0.0 W 11 13 6 7 1016.0 1015.8 0.0
07/01:30am 14.6 14.8 14.6 100 0.0 WNW 7 11 4 6 1016.0 1015.8 0.0
07/01:00am 13.8 13.3 13.8 100 0.0 NW 9 11 5 6 1016.1 1015.9 0.0
07/12:30am 14.1 13.7 14.1 100 0.0 NW 9 9 5 5 1016.2 1016.0 0.0
07/12:00am 14.7 14.9 14.7 100 0.0 NW 7 11 4 6 1016.2 1016.0 0.0
 
Date/Time
EDT
Temp
°C
App
Temp
°C
Dew
Point
Rel
Hum
%
Delta-T
°C
Wind Press
QNH
hPa
Press
MSL
hPa
Rain
since 9 am
mm
Dir
 
Spd
km/h
Gust
km/h
Spd
kts
Gust
kts
06/11:39pm 14.2 13.7 13.7 97 0.3 WNW 9 9 5 5 1016.3 1016.1 0.0
06/11:34pm 14.7 14.8 14.4 98 0.2 WNW 7 9 4 5 1016.4 1016.2 0.0
06/11:30pm 14.9 15.1 14.6 98 0.2 WNW 7 9 4 5 1016.3 1016.1 0.0
06/11:00pm 15.4 17.0 14.9 97 0.3 CALM 0 0 0 0 1016.3 1016.1 0.0
06/10:55pm 15.2 16.3 14.6 96 0.3 S 2 6 1 3 1016.4 1016.2 0.0
06/10:30pm 16.1 16.7 15.3 95 0.5 S 6 7 3 4 1016.4 1016.2 0.0
06/10:00pm 15.7 15.1 14.7 94 0.6 S 11 11 6 6 1016.2 1016.0 0.0
06/09:30pm 16.5 16.5 15.2 92 0.8 S 9 11 5 6 1015.8 1015.6 0.0
06/09:00pm 17.3 16.9 15.1 87 1.3 SSE 11 13 6 7 1015.4 1015.2 0.0
06/08:30pm 18.9 17.9 15.6 81 2.0 SSE 15 19 8 10 1015.2 1015.0 0.0
06/08:00pm 20.2 18.7 15.4 74 2.8 SSE 17 20 9 11 1015.0 1014.8 0.0
06/07:30pm 21.1 18.9 15.0 68 3.6 SSE 20 24 11 13 1014.7 1014.5 0.0
06/07:00pm 21.7 18.6 14.6 64 4.2 SSE 24 28 13 15 1014.7 1014.5 0.0
06/06:30pm 22.3 19.6 14.7 62 4.5 SSE 22 28 12 15 1014.6 1014.4 0.0
06/06:00pm 22.8 18.9 14.4 59 5.0 SSE 28 32 15 17 1014.5 1014.3 0.0
06/05:30pm 23.6 20.1 14.6 57 5.3 S 26 32 14 17 1014.4 1014.2 0.0
06/05:00pm 24.1 20.7 14.8 56 5.6 SSE 26 33 14 18 1014.5 1014.3 0.0
06/04:30pm 24.4 19.9 14.8 55 5.7 S 32 37 17 20 1014.7 1014.5 0.0
06/04:00pm 24.5 19.4 13.1 49 6.6 S 32 37 17 20 1014.9 1014.7 0.0
06/03:30pm 27.0 23.0 14.1 45 7.7 SSW 28 37 15 20 1014.9 1014.7 0.0
06/03:00pm 26.9 24.8 15.3 49 7.1 SSW 20 28 11 15 1015.1 1014.9 0.0
06/02:30pm 25.8 23.3 16.1 55 6.0 SSW 24 32 13 17 1015.4 1015.2 0.0
06/02:00pm 25.0 22.0 14.8 53 6.1 SSW 24 30 13 16 1015.7 1015.5 0.0
06/01:30pm 25.7 23.5 16.0 55 5.9 S 22 30 12 16 1015.8 1015.6 0.0
06/01:00pm 25.7 23.8 15.7 54 6.1 SSW 20 24 11 13 1015.9 1015.7 0.0
06/12:30pm 26.0 24.0 16.5 55 5.9 SSW 22 26 12 14 1016.1 1015.9 0.0
06/12:00pm 27.9 26.5 15.5 46 7.6 WSW 17 26 9 14 1016.1 1015.9 0.0
06/11:30am 27.4 26.5 14.8 46 7.6 NNW 13 20 7 11 1016.3 1016.1 0.0
06/11:00am 25.3 25.7 15.3 54 6.0 NNE 7 15 4 8 1016.4 1016.2 0.0
06/10:30am 23.3 22.8 14.8 59 5.1 NNE 11 17 6 9 1016.7 1016.5 0.0
06/10:00am 21.6 21.1 15.9 70 3.4 ENE 13 17 7 9 1016.9 1016.7 0.0
06/09:30am 19.8 18.5 15.7 77 2.4 NE 17 22 9 12 1017.0 1016.8 0.0
06/09:00am 18.3 16.5 15.4 83 1.7 NE 19 26 10 14 1017.1 1016.9 0.0
06/08:30am 16.9 15.4 15.2 90 1.0 NE 17 24 9 13 1016.9 1016.7 0.0
06/08:00am 15.5 14.1 14.4 93 0.6 NE 15 22 8 12 1016.9 1016.7 0.0
06/07:30am 13.9 12.6 13.6 98 0.2 NE 13 17 7 9 1016.6 1016.4 0.0
06/07:00am 13.0 11.8 12.7 98 0.2 NE 11 17 6 9 1016.3 1016.1 0.0
06/06:30am 13.4 12.0 13.4 100 0.0 NE 13 17 7 9 1016.1 1015.9 0.0
06/06:00am 11.5 10.6 11.5 100 0.0 ENE 7 11 4 6 1016.1 1015.9 0.0
06/05:30am 11.2 10.4 11.2 100 0.0 ENE 6 9 3 5 1016.1 1015.9 0.0
06/05:00am 11.9 11.4 11.9 100 0.0 ENE 6 7 3 4 1016.3 1016.1 0.0
06/04:30am 11.7 12.2 11.7 100 0.0 CALM 0 7 0 4 1016.5 1016.3 0.0
06/04:00am 11.2 11.5 11.0 99 0.1 CALM 0 0 0 0 1016.6 1016.4 0.0
06/03:30am 12.5 13.3 12.5 100 0.0 CALM 0 0 0 0 1016.8 1016.6 0.0
06/03:00am 12.2 12.8 11.9 98 0.2 CALM 0 6 0 3 1017.1 1016.9 0.0
06/02:30am 12.4 13.0 11.8 96 0.3 CALM 0 7 0 4 1017.3 1017.1 0.0
06/02:00am 13.2 13.2 12.4 95 0.4 SE 4 7 2 4 1017.6 1017.4 0.0
06/01:30am 12.8 12.1 12.0 95 0.4 SE 7 9 4 5 1017.8 1017.6 0.0
06/01:00am 14.7 15.7 13.2 91 0.8 CALM 0 0 0 0 1018.1 1017.9 0.0
06/12:30am 14.7 14.3 12.9 89 1.0 SE 7 9 4 5 1018.1 1017.9 0.0
06/12:00am 15.4 15.0 13.1 86 1.3 ESE 7 9 4 5 1018.2 1018.0 0.0
 
Date/Time
EDT
Temp
°C
App
Temp
°C
Dew
Point
Rel
Hum
%
Delta-T
°C
Wind Press
QNH
hPa
Press
MSL
hPa
Rain
since 9 am
mm
Dir
 
Spd
km/h
Gust
km/h
Spd
kts
Gust
kts
05/11:30pm 16.4 15.9 13.7 84 1.5 ESE 9 13 5 7 1018.5 1018.3 0.0
05/11:00pm 16.8 15.8 13.5 81 1.9 ESE 11 13 6 7 1018.6 1018.4 0.0
05/10:30pm 17.5 16.3 14.0 80 2.0 ESE 13 17 7 9 1018.7 1018.5 0.0
05/10:00pm 18.1 16.5 14.0 77 2.3 ESE 15 17 8 9 1018.6 1018.4 0.0
05/09:30pm 18.4 17.3 14.3 77 2.4 ESE 13 19 7 10 1018.3 1018.1 0.0
05/09:00pm 17.7 17.0 14.4 81 1.9 SSE 11 13 6 7 1018.0 1017.8 0.0
05/08:30pm 18.9 16.8 14.6 76 2.5 SSE 19 26 10 14 1017.8 1017.6 0.0
05/08:00pm 20.6 17.1 14.5 68 3.6 SE 26 35 14 19 1017.5 1017.3 0.0
05/07:30pm 21.3 18.9 15.4 69 3.5 SSE 22 30 12 16 1017.3 1017.1 0.0
05/07:00pm 21.8 17.5 15.4 67 3.8 SSE 32 37 17 20 1017.1 1016.9 0.0
05/06:30pm 22.4 18.8 16.2 68 3.8 SSE 30 35 16 19 1017.2 1017.0 0.0
05/06:00pm 22.9 19.6 16.0 65 4.2 SSE 28 35 15 19 1017.4 1017.2 0.0
05/05:30pm 22.3 17.7 15.2 64 4.2 SSE 33 44 18 24 1017.5 1017.3 0.0
05/05:00pm 22.3 17.4 15.4 65 4.1 SSE 35 44 19 24 1017.7 1017.5 0.0
05/04:30pm 22.9 18.3 15.0 61 4.7 SSE 33 44 18 24 1018.0 1017.8 0.0
05/04:00pm 23.3 18.6 14.8 59 5.1 S 33 41 18 22 1018.2 1018.0 0.0
05/03:30pm 22.9 18.1 14.7 60 4.9 SSE 33 43 18 23 1018.6 1018.4 0.0
05/03:00pm 22.6 17.7 14.4 60 4.8 SSE 33 43 18 23 1018.9 1018.7 0.0
05/02:30pm 22.5 17.7 14.6 61 4.7 SSE 33 41 18 22 1019.1 1018.9 0.0
05/02:00pm 22.7 18.2 15.0 61 4.6 SSE 32 39 17 21 1019.5 1019.3 0.0
05/01:30pm 21.9 17.3 14.5 63 4.4 SSE 32 41 17 22 1019.9 1019.7 0.0
05/01:00pm 23.0 19.0 15.1 61 4.7 SSE 30 39 16 21 1020.2 1020.0 0.0
05/12:30pm 22.6 18.6 15.2 63 4.4 SSE 30 39 16 21 1020.5 1020.3 0.0
05/12:00pm 21.5 18.0 14.4 64 4.2 SSE 26 35 14 19 1020.8 1020.6 0.0
05/11:30am 21.1 17.1 14.0 64 4.1 SSE 28 35 15 19 1021.1 1020.9 0.0
05/11:00am 20.5 17.2 13.9 66 3.8 S 24 32 13 17 1021.3 1021.1 0.0
05/10:30am 21.9 19.5 14.3 62 4.5 SE 20 30 11 16 1021.5 1021.3 0.0
05/10:00am 20.5 17.3 13.2 63 4.2 ESE 22 30 12 16 1021.6 1021.4 0.0
05/09:30am 19.3 16.0 12.8 66 3.7 SE 22 30 12 16 1021.8 1021.6 0.0
05/09:00am 17.3 14.2 12.2 72 2.8 SE 20 26 11 14 1021.8 1021.6 0.2
05/08:30am 16.4 14.2 12.2 76 2.3 SE 15 22 8 12 1021.8 1021.6 -
05/08:00am 15.8 13.6 12.0 78 2.1 SE 15 20 8 11 1021.4 1021.2 0.0
05/07:30am 15.0 13.1 11.8 81 1.7 SE 13 17 7 9 1021.1 1020.9 0.0
05/07:00am 14.7 13.2 11.8 83 1.6 SE 11 15 6 8 1021.0 1020.8 0.0
05/06:30am 14.2 13.0 11.5 84 1.4 SE 9 13 5 7 1020.9 1020.7 0.0
05/06:00am 13.5 11.7 10.7 83 1.5 SE 11 13 6 7 1020.8 1020.6 0.0
05/05:30am 14.3 12.1 10.9 80 1.8 SE 13 19 7 10 1020.5 1020.3 0.0
05/05:00am 14.5 11.5 10.7 78 2.0 SE 17 20 9 11 1020.5 1020.3 0.0
05/04:30am 14.8 11.8 10.8 77 2.1 SE 17 24 9 13 1020.4 1020.2 0.0
05/04:00am 15.1 12.1 10.7 75 2.3 SE 17 24 9 13 1020.4 1020.2 0.0
05/03:30am 15.4 12.1 10.8 74 2.4 SE 19 20 10 11 1020.7 1020.5 0.0
05/03:00am 15.5 12.7 11.3 76 2.3 SE 17 22 9 12 1020.8 1020.6 0.0
05/02:30am 15.6 12.4 11.4 76 2.3 SE 19 24 10 13 1021.1 1020.9 0.0
05/02:00am 15.6 12.2 11.2 75 2.4 SE 20 28 11 15 1021.2 1021.0 0.0
05/01:30am 15.6 12.2 11.4 76 2.3 SE 20 30 11 16 1021.3 1021.1 0.0
05/01:00am 15.7 11.9 11.3 75 2.4 SSE 22 32 12 17 1021.4 1021.2 0.0
05/12:30am 15.6 12.2 11.4 76 2.3 SE 20 24 11 13 1021.4 1021.2 0.0
05/12:00am 15.7 12.1 11.7 77 2.2 SSE 22 32 12 17 1021.3 1021.1 0.0
 
Date/Time
EDT
Temp
°C
App
Temp
°C
Dew
Point
Rel
Hum
%
Delta-T
°C
Wind Press
QNH
hPa
Press
MSL
hPa
Rain
since 9 am
mm
Dir
 
Spd
km/h
Gust
km/h
Spd
kts
Gust
kts
04/11:30pm 15.5 12.2 11.7 78 2.1 SSE 20 28 11 15 1021.5 1021.3 0.0
04/11:00pm 15.2 12.1 11.6 79 1.9 SSE 19 26 10 14 1021.9 1021.7 0.0
04/10:30pm 14.4 11.1 11.0 80 1.8 SSE 19 26 10 14 1021.8 1021.6 0.0
04/10:00pm 14.8 10.9 10.8 77 2.1 SSE 22 30 12 16 1021.7 1021.5 0.0
04/09:30pm 14.8 11.5 10.8 77 2.1 SSE 19 24 10 13 1021.5 1021.3 0.0

Other Formats:

Comma delimited format used in spreadsheet applications
http://www.bom.gov.au/fwo/IDV60801/IDV60801.94837.axf

JavaScript Object Notation format (JSON) in row-major order
http://www.bom.gov.au/fwo/IDV60801/IDV60801.94837.json